sensor_id;sensor_type;location;lat;lon;timestamp;P1;durP1;ratioP1;P2;durP2;ratioP2
11245;SDS011;59870;50.106;8.580;2022-09-30T03:41:10;7.83;;;7.33;;
11245;SDS011;59870;50.106;8.580;2022-09-30T03:44:14;7.90;;;7.33;;
11245;SDS011;59870;50.106;8.580;2022-09-30T03:49:59;8.10;;;7.33;;
11245;SDS011;59870;50.106;8.580;2022-09-30T03:52:30;7.70;;;7.20;;
11245;SDS011;59870;50.106;8.580;2022-09-30T04:01:20;6.93;;;6.53;;
11245;SDS011;59870;50.106;8.580;2022-09-30T05:08:02;6.63;;;6.03;;
11245;SDS011;59870;50.106;8.580;2022-09-30T09:57:08;8.80;;;6.80;;
11245;SDS011;59870;50.106;8.580;2022-09-30T16:45:36;4.27;;;2.40;;
11245;SDS011;59870;50.106;8.580;2022-09-30T16:48:07;2.43;;;2.33;;
11245;SDS011;59870;50.106;8.580;2022-09-30T16:50:42;2.07;;;1.97;;
11245;SDS011;59870;50.106;8.580;2022-09-30T16:53:12;2.20;;;2.10;;
11245;SDS011;59870;50.106;8.580;2022-09-30T16:55:41;2.10;;;2.00;;
11245;SDS011;59870;50.106;8.580;2022-09-30T16:58:10;2.57;;;2.37;;
11245;SDS011;59870;50.106;8.580;2022-09-30T17:00:40;2.63;;;2.43;;
11245;SDS011;59870;50.106;8.580;2022-09-30T17:03:13;2.77;;;2.57;;
11245;SDS011;59870;50.106;8.580;2022-09-30T17:05:44;2.60;;;2.40;;
11245;SDS011;59870;50.106;8.580;2022-09-30T17:08:18;3.67;;;2.10;;
11245;SDS011;59870;50.106;8.580;2022-09-30T17:10:48;6.63;;;2.20;;
11245;SDS011;59870;50.106;8.580;2022-09-30T17:13:17;3.20;;;3.00;;
11245;SDS011;59870;50.106;8.580;2022-09-30T17:15:47;2.47;;;2.20;;
11245;SDS011;59870;50.106;8.580;2022-09-30T17:18:16;3.80;;;2.60;;
11245;SDS011;59870;50.106;8.580;2022-09-30T17:20:46;2.83;;;2.63;;
11245;SDS011;59870;50.106;8.580;2022-09-30T17:23:20;2.43;;;2.23;;
11245;SDS011;59870;50.106;8.580;2022-09-30T17:25:49;2.77;;;2.57;;
11245;SDS011;59870;50.106;8.580;2022-09-30T17:28:18;2.40;;;2.30;;
11245;SDS011;59870;50.106;8.580;2022-09-30T17:30:46;2.30;;;2.10;;
11245;SDS011;59870;50.106;8.580;2022-09-30T17:33:16;5.37;;;2.40;;
11245;SDS011;59870;50.106;8.580;2022-09-30T17:35:57;3.73;;;2.60;;
11245;SDS011;59870;50.106;8.580;2022-09-30T17:38:27;3.13;;;2.80;;
11245;SDS011;59870;50.106;8.580;2022-09-30T17:40:55;2.57;;;2.30;;
11245;SDS011;59870;50.106;8.580;2022-09-30T17:43:42;4.80;;;2.60;;
11245;SDS011;59870;50.106;8.580;2022-09-30T17:46:15;2.60;;;2.40;;
11245;SDS011;59870;50.106;8.580;2022-09-30T17:48:46;3.27;;;2.43;;
11245;SDS011;59870;50.106;8.580;2022-09-30T17:51:14;2.93;;;2.67;;
11245;SDS011;59870;50.106;8.580;2022-09-30T17:53:43;2.60;;;2.50;;
11245;SDS011;59870;50.106;8.580;2022-09-30T17:56:19;4.17;;;2.87;;
11245;SDS011;59870;50.106;8.580;2022-09-30T17:58:49;3.03;;;2.47;;
11245;SDS011;59870;50.106;8.580;2022-09-30T18:01:18;2.87;;;2.67;;
11245;SDS011;59870;50.106;8.580;2022-09-30T18:03:47;3.40;;;3.10;;
11245;SDS011;59870;50.106;8.580;2022-09-30T18:06:20;5.43;;;4.90;;
11245;SDS011;59870;50.106;8.580;2022-09-30T18:08:50;9.43;;;7.53;;
11245;SDS011;59870;50.106;8.580;2022-09-30T18:11:23;9.00;;;8.10;;
11245;SDS011;59870;50.106;8.580;2022-09-30T18:13:55;9.00;;;7.83;;
11245;SDS011;59870;50.106;8.580;2022-09-30T18:16:25;6.87;;;6.27;;
11245;SDS011;59870;50.106;8.580;2022-09-30T18:19:00;8.33;;;7.53;;
11245;SDS011;59870;50.106;8.580;2022-09-30T18:21:31;7.63;;;7.00;;
11245;SDS011;59870;50.106;8.580;2022-09-30T18:24:04;8.80;;;7.93;;
11245;SDS011;59870;50.106;8.580;2022-09-30T18:26:34;12.97;;;8.07;;
11245;SDS011;59870;50.106;8.580;2022-09-30T18:29:06;9.73;;;8.73;;
11245;SDS011;59870;50.106;8.580;2022-09-30T18:31:35;10.10;;;8.30;;
11245;SDS011;59870;50.106;8.580;2022-09-30T18:34:07;10.57;;;9.43;;
11245;SDS011;59870;50.106;8.580;2022-09-30T18:36:40;8.97;;;8.00;;
11245;SDS011;59870;50.106;8.580;2022-09-30T18:39:11;12.37;;;10.53;;
11245;SDS011;59870;50.106;8.580;2022-09-30T18:41:42;9.40;;;8.40;;
11245;SDS011;59870;50.106;8.580;2022-09-30T18:44:14;9.57;;;8.67;;
11245;SDS011;59870;50.106;8.580;2022-09-30T18:46:43;10.30;;;9.23;;
11245;SDS011;59870;50.106;8.580;2022-09-30T18:49:16;13.00;;;10.10;;
11245;SDS011;59870;50.106;8.580;2022-09-30T18:51:49;12.77;;;9.10;;
11245;SDS011;59870;50.106;8.580;2022-09-30T18:54:19;11.20;;;9.00;;
11245;SDS011;59870;50.106;8.580;2022-09-30T18:56:49;7.63;;;6.73;;
11245;SDS011;59870;50.106;8.580;2022-09-30T18:59:17;8.87;;;8.10;;
11245;SDS011;59870;50.106;8.580;2022-09-30T19:01:49;6.80;;;6.20;;
11245;SDS011;59870;50.106;8.580;2022-09-30T19:04:17;7.23;;;6.63;;
11245;SDS011;59870;50.106;8.580;2022-09-30T19:06:45;7.07;;;6.33;;
11245;SDS011;59870;50.106;8.580;2022-09-30T19:09:13;7.50;;;6.70;;
11245;SDS011;59870;50.106;8.580;2022-09-30T19:11:43;6.57;;;6.07;;
11245;SDS011;59870;50.106;8.580;2022-09-30T19:14:12;10.87;;;6.57;;
11245;SDS011;59870;50.106;8.580;2022-09-30T19:16:40;7.73;;;6.03;;
11245;SDS011;59870;50.106;8.580;2022-09-30T19:19:09;6.20;;;5.70;;
11245;SDS011;59870;50.106;8.580;2022-09-30T19:21:37;6.20;;;5.60;;
11245;SDS011;59870;50.106;8.580;2022-09-30T19:24:06;6.60;;;5.57;;
11245;SDS011;59870;50.106;8.580;2022-09-30T19:26:35;6.67;;;5.80;;
11245;SDS011;59870;50.106;8.580;2022-09-30T19:29:04;5.70;;;5.20;;
11245;SDS011;59870;50.106;8.580;2022-09-30T19:31:35;6.10;;;5.67;;
11245;SDS011;59870;50.106;8.580;2022-09-30T19:34:04;7.57;;;5.40;;
11245;SDS011;59870;50.106;8.580;2022-09-30T19:36:32;5.43;;;4.93;;
11245;SDS011;59870;50.106;8.580;2022-09-30T19:39:15;6.83;;;6.17;;
11245;SDS011;59870;50.106;8.580;2022-09-30T19:41:42;6.47;;;5.87;;
11245;SDS011;59870;50.106;8.580;2022-09-30T19:44:12;6.70;;;6.10;;
11245;SDS011;59870;50.106;8.580;2022-09-30T19:46:47;6.53;;;6.00;;
11245;SDS011;59870;50.106;8.580;2022-09-30T19:49:16;7.00;;;6.30;;
11245;SDS011;59870;50.106;8.580;2022-09-30T19:51:44;7.23;;;6.57;;
11245;SDS011;59870;50.106;8.580;2022-09-30T19:54:11;7.37;;;6.77;;
11245;SDS011;59870;50.106;8.580;2022-09-30T19:56:38;7.63;;;6.87;;
11245;SDS011;59870;50.106;8.580;2022-09-30T19:59:06;7.30;;;6.60;;
11245;SDS011;59870;50.106;8.580;2022-09-30T20:01:34;7.57;;;6.90;;
11245;SDS011;59870;50.106;8.580;2022-09-30T20:04:02;9.27;;;6.67;;
11245;SDS011;59870;50.106;8.580;2022-09-30T20:06:32;7.77;;;7.07;;
11245;SDS011;59870;50.106;8.580;2022-09-30T20:09:01;7.63;;;6.70;;
11245;SDS011;59870;50.106;8.580;2022-09-30T20:11:32;6.90;;;6.33;;
11245;SDS011;59870;50.106;8.580;2022-09-30T20:14:03;8.53;;;7.13;;
11245;SDS011;59870;50.106;8.580;2022-09-30T20:16:50;7.27;;;6.57;;
11245;SDS011;59870;50.106;8.580;2022-09-30T20:19:18;6.50;;;5.73;;
11245;SDS011;59870;50.106;8.580;2022-09-30T20:21:48;8.10;;;6.60;;
11245;SDS011;59870;50.106;8.580;2022-09-30T20:24:16;7.00;;;6.30;;
11245;SDS011;59870;50.106;8.580;2022-09-30T20:26:44;10.67;;;6.67;;
11245;SDS011;59870;50.106;8.580;2022-09-30T20:29:12;7.30;;;6.57;;
11245;SDS011;59870;50.106;8.580;2022-09-30T20:31:40;7.30;;;6.57;;
11245;SDS011;59870;50.106;8.580;2022-09-30T20:34:12;7.30;;;6.70;;
11245;SDS011;59870;50.106;8.580;2022-09-30T20:36:41;9.73;;;6.60;;
11245;SDS011;59870;50.106;8.580;2022-09-30T20:39:09;10.00;;;7.43;;
11245;SDS011;59870;50.106;8.580;2022-09-30T20:41:37;8.23;;;6.83;;
11245;SDS011;59870;50.106;8.580;2022-09-30T20:44:09;11.30;;;7.33;;
11245;SDS011;59870;50.106;8.580;2022-09-30T20:46:39;8.53;;;7.83;;
11245;SDS011;59870;50.106;8.580;2022-09-30T20:49:09;7.83;;;7.23;;
11245;SDS011;59870;50.106;8.580;2022-09-30T20:51:37;7.83;;;7.13;;
11245;SDS011;59870;50.106;8.580;2022-09-30T20:54:05;9.83;;;7.20;;
11245;SDS011;59870;50.106;8.580;2022-09-30T20:56:33;7.33;;;6.57;;
11245;SDS011;59870;50.106;8.580;2022-09-30T20:59:20;7.70;;;7.00;;
11245;SDS011;59870;50.106;8.580;2022-09-30T21:01:48;7.47;;;6.77;;
11245;SDS011;59870;50.106;8.580;2022-09-30T21:04:16;8.37;;;7.53;;
11245;SDS011;59870;50.106;8.580;2022-09-30T21:06:43;10.80;;;8.53;;
11245;SDS011;59870;50.106;8.580;2022-09-30T21:09:11;8.47;;;7.67;;
11245;SDS011;59870;50.106;8.580;2022-09-30T21:11:38;9.20;;;8.40;;
11245;SDS011;59870;50.106;8.580;2022-09-30T21:14:08;8.63;;;7.77;;
11245;SDS011;59870;50.106;8.580;2022-09-30T21:16:35;9.20;;;8.40;;
11245;SDS011;59870;50.106;8.580;2022-09-30T21:19:03;9.80;;;8.80;;
11245;SDS011;59870;50.106;8.580;2022-09-30T21:21:30;9.10;;;8.30;;
11245;SDS011;59870;50.106;8.580;2022-09-30T21:23:58;9.77;;;8.73;;
11245;SDS011;59870;50.106;8.580;2022-09-30T21:26:26;9.30;;;8.50;;
11245;SDS011;59870;50.106;8.580;2022-09-30T21:28:53;9.53;;;8.63;;
11245;SDS011;59870;50.106;8.580;2022-09-30T21:31:22;8.60;;;7.80;;
11245;SDS011;59870;50.106;8.580;2022-09-30T21:33:53;8.93;;;8.20;;
11245;SDS011;59870;50.106;8.580;2022-09-30T21:36:25;9.10;;;8.20;;
11245;SDS011;59870;50.106;8.580;2022-09-30T21:38:53;28.50;;;19.90;;
11245;SDS011;59870;50.106;8.580;2022-09-30T21:41:26;22.73;;;16.73;;
11245;SDS011;59870;50.106;8.580;2022-09-30T21:43:54;38.23;;;25.73;;
11245;SDS011;59870;50.106;8.580;2022-09-30T21:46:22;18.50;;;14.80;;
11245;SDS011;59870;50.106;8.580;2022-09-30T21:48:49;11.27;;;9.50;;
11245;SDS011;59870;50.106;8.580;2022-09-30T21:51:19;11.37;;;10.10;;
11245;SDS011;59870;50.106;8.580;2022-09-30T21:53:47;10.40;;;9.30;;
11245;SDS011;59870;50.106;8.580;2022-09-30T21:56:14;7.97;;;7.43;;
11245;SDS011;59870;50.106;8.580;2022-09-30T21:58:41;8.77;;;7.43;;
11245;SDS011;59870;50.106;8.580;2022-09-30T22:01:09;6.97;;;6.37;;
11245;SDS011;59870;50.106;8.580;2022-09-30T22:03:37;6.90;;;6.40;;
11245;SDS011;59870;50.106;8.580;2022-09-30T22:06:05;7.47;;;6.77;;
11245;SDS011;59870;50.106;8.580;2022-09-30T22:08:34;8.63;;;7.27;;
11245;SDS011;59870;50.106;8.580;2022-09-30T22:11:11;6.33;;;5.90;;
11245;SDS011;59870;50.106;8.580;2022-09-30T22:13:42;6.33;;;5.77;;
11245;SDS011;59870;50.106;8.580;2022-09-30T22:16:13;7.60;;;6.80;;
11245;SDS011;59870;50.106;8.580;2022-09-30T22:18:41;6.27;;;5.80;;
11245;SDS011;59870;50.106;8.580;2022-09-30T22:21:10;6.23;;;5.53;;
11245;SDS011;59870;50.106;8.580;2022-09-30T22:23:39;6.00;;;5.50;;
11245;SDS011;59870;50.106;8.580;2022-09-30T22:26:08;6.20;;;5.60;;
11245;SDS011;59870;50.106;8.580;2022-09-30T22:28:46;5.90;;;5.33;;
11245;SDS011;59870;50.106;8.580;2022-09-30T22:31:19;5.87;;;5.47;;
11245;SDS011;59870;50.106;8.580;2022-09-30T22:33:50;6.00;;;5.60;;
11245;SDS011;59870;50.106;8.580;2022-09-30T22:36:37;5.90;;;5.50;;
11245;SDS011;59870;50.106;8.580;2022-09-30T22:39:24;6.10;;;5.60;;
11245;SDS011;59870;50.106;8.580;2022-09-30T22:41:51;5.83;;;5.40;;
11245;SDS011;59870;50.106;8.580;2022-09-30T22:44:20;6.87;;;6.17;;
11245;SDS011;59870;50.106;8.580;2022-09-30T22:46:51;6.03;;;5.63;;
11245;SDS011;59870;50.106;8.580;2022-09-30T22:49:19;6.37;;;5.77;;
11245;SDS011;59870;50.106;8.580;2022-09-30T22:51:51;6.27;;;5.73;;
11245;SDS011;59870;50.106;8.580;2022-09-30T22:54:19;6.53;;;5.87;;
11245;SDS011;59870;50.106;8.580;2022-09-30T22:56:47;7.33;;;6.60;;
11245;SDS011;59870;50.106;8.580;2022-09-30T22:59:19;7.47;;;6.87;;
11245;SDS011;59870;50.106;8.580;2022-09-30T23:01:48;6.80;;;6.20;;
11245;SDS011;59870;50.106;8.580;2022-09-30T23:04:16;6.90;;;6.30;;
11245;SDS011;59870;50.106;8.580;2022-09-30T23:06:45;7.43;;;6.40;;
11245;SDS011;59870;50.106;8.580;2022-09-30T23:09:14;7.10;;;6.33;;
11245;SDS011;59870;50.106;8.580;2022-09-30T23:11:43;6.50;;;5.97;;
11245;SDS011;59870;50.106;8.580;2022-09-30T23:14:12;8.70;;;6.20;;
11245;SDS011;59870;50.106;8.580;2022-09-30T23:16:40;6.87;;;6.27;;
11245;SDS011;59870;50.106;8.580;2022-09-30T23:19:08;9.57;;;6.13;;
11245;SDS011;59870;50.106;8.580;2022-09-30T23:21:35;6.97;;;6.37;;
11245;SDS011;59870;50.106;8.580;2022-09-30T23:24:03;6.97;;;6.37;;
11245;SDS011;59870;50.106;8.580;2022-09-30T23:26:31;7.00;;;6.30;;
11245;SDS011;59870;50.106;8.580;2022-09-30T23:28:59;8.27;;;6.07;;
11245;SDS011;59870;50.106;8.580;2022-09-30T23:31:29;6.43;;;5.93;;
11245;SDS011;59870;50.106;8.580;2022-09-30T23:33:59;6.73;;;6.23;;
11245;SDS011;59870;50.106;8.580;2022-09-30T23:36:31;6.93;;;6.23;;
11245;SDS011;59870;50.106;8.580;2022-09-30T23:39:23;6.37;;;5.87;;
11245;SDS011;59870;50.106;8.580;2022-09-30T23:41:49;7.17;;;6.50;;
11245;SDS011;59870;50.106;8.580;2022-09-30T23:44:16;7.03;;;6.33;;
11245;SDS011;59870;50.106;8.580;2022-09-30T23:46:47;7.20;;;6.00;;
11245;SDS011;59870;50.106;8.580;2022-09-30T23:49:33;7.27;;;6.60;;
11245;SDS011;59870;50.106;8.580;2022-09-30T23:52:05;7.20;;;6.60;;
11245;SDS011;59870;50.106;8.580;2022-09-30T23:54:39;7.20;;;6.23;;
11245;SDS011;59870;50.106;8.580;2022-09-30T23:57:07;6.80;;;6.30;;
11245;SDS011;59870;50.106;8.580;2022-09-30T23:59:36;6.33;;;5.77;;
